Estación municipal de Seva (Osona, P.N. del Montseny)

Consulta los datos en tiempo real de la estación municipal de Seva





Hora UTC 05:00
Temperatura 5.8 ºC
Suelo 15 cm 4.1 ºC
Humedad 97.8 %
Presión 1014.6 hPa
Pluja 0.0 mm
Velocidad viento 0.2 km/h
Dirección viento ESE
Radiación solar 9.2 W/m²

Webcam

Datos diarios 2026-05-08



Hora UTC (invierno +1h; verano +2h)
Temperatura (ºC) Humedad (%) Presión (hPa) Velocidad viento (km/h) Precipitación (mm) Radiación solar (W/m²)
Hora UTC Aire Suelo 15 cm Humedad Presión Vel. Dir. Vel. Max Dir. Intent. máx 5 min. Rad. Sol.
00:05 9.0 7.7 95.7 1015.4 4.0 E 4.0 E 0.0 0.1
00:10 9.0 7.7 95.8 1015.4 3.5 E 5.3 E 0.0 0.1
00:15 9.0 7.7 96.0 1015.3 3.3 E 4.9 E 0.0 0.1
00:20 9.1 7.8 96.1 1015.3 3.5 E 4.9 E 0.0 0.1
00:25 9.2 7.9 96.0 1015.3 4.1 E 5.6 ESE 0.0 0.1
00:30 9.2 7.9 95.8 1015.3 2.8 E 4.9 E 0.0 0.0
00:35 9.2 7.9 95.6 1015.3 0.9 E 2.8 ENE 0.0 0.1
00:40 9.2 7.8 95.5 1015.3 0.0 NE 1.1 NE 0.0 0.1
00:45 9.1 7.8 95.4 1015.3 0.5 NE 3.2 NNE 0.0 0.1
00:50 9.1 7.7 95.3 1015.3 1.0 WSW 2.5 W 0.0 0.1
00:55 9.1 7.7 95.2 1015.3 0.8 ESE 2.1 ESE 0.0 0.1
01:00 9.0 7.7 95.1 1015.3 2.5 E 3.2 E 0.0 0.1
01:05 8.9 7.7 95.0 1015.2 3.5 E 4.9 E 0.0 0.1
01:10 8.9 7.6 95.0 1015.1 3.7 E 5.6 E 0.0 0.1
01:15 8.9 7.6 95.2 1015.1 2.8 E 4.4 ESE 0.0 0.1
01:20 8.9 7.5 95.0 1015.1 1.7 ESE 3.2 E 0.0 0.1
01:25 8.9 7.4 94.9 1015.1 1.4 SE 2.1 SE 0.0 0.1
01:30 8.9 7.4 94.6 1015.0 0.1 SE 1.4 SE 0.0 0.1
01:35 8.8 7.3 94.6 1015.0 1.7 E 3.5 E 0.0 0.1
01:40 8.7 7.2 94.7 1014.9 2.5 ESE 3.2 ESE 0.0 0.1
01:45 8.7 7.1 95.0 1014.9 2.0 ESE 2.5 ESE 0.0 0.1
01:50 8.6 7.1 95.1 1014.9 2.5 ESE 3.2 ESE 0.0 0.1
01:55 8.5 7.1 95.2 1014.8 2.5 E 3.5 ENE 0.0 0.1
02:00 8.4 7.0 95.3 1014.8 3.5 E 3.9 ENE 0.0 0.1
02:05 8.3 6.9 95.4 1014.7 4.2 E 4.9 E 0.0 0.1
02:10 8.2 6.7 95.6 1014.7 2.1 ESE 3.9 E 0.0 0.1
02:15 8.3 6.7 96.0 1014.7 1.4 ESE 2.5 ESE 0.0 0.1
02:20 8.1 6.6 95.9 1014.6 2.7 E 3.5 ENE 0.0 0.0
02:25 8.1 6.7 96.1 1014.7 2.9 E 3.5 E 0.0 0.1
02:30 8.1 6.6 96.1 1014.7 2.5 E 2.8 E 0.0 0.1
02:35 8.0 6.6 96.2 1014.7 2.8 E 3.5 E 0.0 0.1
02:40 7.9 6.5 96.3 1014.7 1.9 E 2.8 E 0.0 0.1
02:45 7.9 6.4 96.5 1014.7 2.5 E 3.2 ESE 0.0 0.1
02:50 7.8 6.3 96.6 1014.6 2.8 E 3.5 E 0.0 0.1
02:55 7.7 6.1 96.6 1014.6 3.3 E 3.9 E 0.0 0.1
03:00 7.5 5.9 96.6 1014.5 3.7 E 4.2 E 0.0 0.1
03:05 7.4 5.8 96.7 1014.5 3.6 E 4.2 E 0.0 0.1
03:10 7.3 5.6 96.8 1014.5 3.2 ENE 3.9 E 0.0 0.1
03:15 7.2 5.5 96.9 1014.5 2.5 ENE 3.5 ENE 0.0 0.1
03:20 7.0 5.4 96.9 1014.5 1.9 ENE 5.6 NNE 0.0 0.1
03:25 6.9 5.2 96.9 1014.4 3.9 ENE 5.6 ENE 0.0 0.1
03:30 6.7 5.1 97.0 1014.4 3.9 ENE 5.6 NE 0.0 0.1
03:35 6.8 5.0 97.3 1014.4 3.8 ENE 6.7 NE 0.0 0.1
03:40 6.7 4.9 97.2 1014.3 3.2 E 4.2 ENE 0.0 0.1
03:45 6.7 4.8 97.3 1014.4 2.6 ENE 3.9 ENE 0.0 0.1
03:50 6.7 4.6 97.4 1014.4 2.1 ENE 3.5 NE 0.0 0.0
03:55 6.7 4.6 97.5 1014.4 0.9 E 2.5 ESE 0.0 0.1
04:00 6.6 4.5 97.4 1014.5 1.5 ENE 3.2 NNE 0.0 0.1
04:05 6.7 4.6 97.7 1014.4 1.5 NNE 3.5 N 0.0 0.0
04:10 6.7 4.6 97.6 1014.5 0.4 ENE 1.8 ENE 0.0 0.1
04:15 6.5 4.6 97.2 1014.5 1.9 E 3.5 ESE 0.0 0.1
04:20 6.2 4.4 97.1 1014.5 2.3 SE 3.5 ESE 0.0 0.1
04:25 6.4 4.3 97.6 1014.5 2.1 SE 3.5 ESE 0.0 0.2
04:30 6.2 4.2 97.2 1014.5 3.0 ESE 3.5 ESE 0.0 0.6
04:35 6.0 4.1 97.4 1014.5 2.4 SE 3.2 SE 0.0 1.3
04:40 6.2 4.0 97.8 1014.5 0.8 SSE 2.1 SSE 0.0 2.3
04:45 6.3 4.1 97.9 1014.6 0.2 SE 2.8 ESE 0.0 3.5
04:50 6.0 4.1 97.5 1014.7 4.4 E 6.4 ENE 0.0 5.0
04:55 5.8 4.1 97.5 1014.6 2.9 ENE 6.0 E 0.0 6.8
05:00 5.8 4.1 97.8 1014.6 0.2 ESE 1.8 ESE 0.0 9.2
Máxima 9.2 7.9 97.9 1015.4 4.4 E 6.7 NE 0.0 9.2
Mínima 5.8 4.0 94.6 1014.3
Total 0.0